createdAt,value
2018-07-30T00:00:33.700Z,3.85
2018-07-30T00:01:39.756Z,3.65
2018-07-30T00:02:46.465Z,3.70
2018-07-30T00:03:52.507Z,3.47
2018-07-30T00:04:58.739Z,3.40
2018-07-30T00:06:04.539Z,3.20
2018-07-30T00:07:10.542Z,3.42
2018-07-30T00:08:16.936Z,3.58
2018-07-30T00:09:23.054Z,3.60
2018-07-30T00:10:29.057Z,3.70
2018-07-30T00:11:35.091Z,3.85
2018-07-30T00:12:42.727Z,3.87
2018-07-30T00:13:48.969Z,3.92
2018-07-30T00:14:55.073Z,4.50
2018-07-30T00:16:01.034Z,3.90
2018-07-30T00:17:07.185Z,3.83
2018-07-30T00:18:13.019Z,4.00
2018-07-30T00:19:19.051Z,4.28
2018-07-30T00:20:25.084Z,4.00
2018-07-30T00:21:31.153Z,3.90
2018-07-30T00:22:37.371Z,3.97
2018-07-30T00:23:43.473Z,3.87
2018-07-30T00:24:49.588Z,3.78
2018-07-30T00:25:55.583Z,3.45
2018-07-30T00:27:02.450Z,4.68
2018-07-30T00:28:08.253Z,3.62
2018-07-30T00:29:14.264Z,3.72
2018-07-30T00:30:20.373Z,3.80
2018-07-30T00:31:26.368Z,4.18
2018-07-30T00:32:32.746Z,3.50
2018-07-30T00:33:38.855Z,4.12
2018-07-30T00:34:44.974Z,3.70
2018-07-30T00:35:51.075Z,4.10
2018-07-30T00:36:57.178Z,4.15
2018-07-30T00:38:03.220Z,4.12
2018-07-30T00:39:09.576Z,3.90
2018-07-30T00:40:15.340Z,3.95
2018-07-30T00:41:21.404Z,3.97
2018-07-30T00:42:27.556Z,4.25
2018-07-30T00:43:33.732Z,4.05
2018-07-30T00:44:39.762Z,4.22
2018-07-30T00:45:45.736Z,4.07
2018-07-30T00:46:51.772Z,3.80
2018-07-30T00:47:57.881Z,3.65
2018-07-30T00:49:04.258Z,4.18
2018-07-30T00:50:10.594Z,4.45
2018-07-30T00:51:16.207Z,4.28
2018-07-30T00:52:22.273Z,4.15
2018-07-30T00:53:28.417Z,3.78
2018-07-30T00:54:35.387Z,4.32
2018-07-30T00:55:41.498Z,4.68
2018-07-30T00:56:47.655Z,3.70
2018-07-30T00:57:54.024Z,4.55
2018-07-30T00:59:00.038Z,3.92
2018-07-30T01:00:05.397Z,4.20
2018-07-30T01:01:11.488Z,4.85
2018-07-30T01:02:17.575Z,4.30
2018-07-30T01:03:23.700Z,4.20
2018-07-30T01:04:29.782Z,4.00
2018-07-30T01:05:35.853Z,4.80
2018-07-30T01:06:42.005Z,4.68
2018-07-30T01:07:47.972Z,4.72
2018-07-30T01:08:53.781Z,4.45
2018-07-30T01:09:59.778Z,4.90
2018-07-30T01:11:05.879Z,4.72
2018-07-30T01:12:12.064Z,4.30
2018-07-30T01:13:17.946Z,3.90
2018-07-30T01:14:23.862Z,4.68
2018-07-30T01:15:30.100Z,4.70
2018-07-30T01:16:36.217Z,5.20
2018-07-30T01:17:42.327Z,4.05
2018-07-30T01:18:48.462Z,4.35
2018-07-30T01:19:54.480Z,4.60
2018-07-30T01:21:00.489Z,5.03
2018-07-30T01:22:06.641Z,4.40
2018-07-30T01:23:12.294Z,4.18
2018-07-30T01:24:18.392Z,4.72
2018-07-30T01:25:25.478Z,4.47
2018-07-30T01:26:31.743Z,4.50
2018-07-30T01:27:37.344Z,4.78
2018-07-30T01:28:43.652Z,4.95
2018-07-30T01:29:49.332Z,4.57
2018-07-30T01:30:55.419Z,3.90
2018-07-30T01:32:01.571Z,4.87
2018-07-30T01:33:07.624Z,4.30
2018-07-30T01:34:13.695Z,4.57
2018-07-30T01:35:19.839Z,5.95
2018-07-30T01:36:25.972Z,3.67
2018-07-30T01:37:32.061Z,4.97
2018-07-30T01:38:38.090Z,4.45
2018-07-30T01:39:45.158Z,4.72
2018-07-30T01:40:51.195Z,4.75
2018-07-30T01:41:57.708Z,4.32
2018-07-30T01:43:03.364Z,4.55
2018-07-30T01:44:09.409Z,4.10
2018-07-30T01:45:15.457Z,4.53
2018-07-30T01:46:22.188Z,4.70
2018-07-30T01:47:28.146Z,4.50
2018-07-30T01:48:34.198Z,4.85
2018-07-30T01:49:40.195Z,5.43
2018-07-30T01:50:46.212Z,4.80
2018-07-30T01:51:52.214Z,4.03
2018-07-30T01:52:58.182Z,4.57
2018-07-30T01:54:04.508Z,4.72
2018-07-30T01:55:10.188Z,4.62
2018-07-30T01:56:16.177Z,4.47
2018-07-30T01:57:22.080Z,4.53
2018-07-30T01:58:27.835Z,4.80
2018-07-30T01:59:33.946Z,4.10
2018-07-30T02:00:39.216Z,4.70
2018-07-30T02:01:46.616Z,4.72
2018-07-30T02:02:52.906Z,4.85
2018-07-30T02:03:58.939Z,4.30
2018-07-30T02:05:04.757Z,5.40
2018-07-30T02:06:10.776Z,4.32
2018-07-30T02:07:16.758Z,4.93
2018-07-30T02:08:22.559Z,5.10
2018-07-30T02:09:28.568Z,4.50
2018-07-30T02:10:34.552Z,4.90
2018-07-30T02:11:40.572Z,5.20
2018-07-30T02:12:46.257Z,5.00
2018-07-30T02:13:52.264Z,4.60
2018-07-30T02:14:58.406Z,4.70
2018-07-30T02:16:04.383Z,4.95
2018-07-30T02:17:10.150Z,4.62
2018-07-30T02:18:16.172Z,4.32
2018-07-30T02:19:28.243Z,5.30
2018-07-30T02:20:34.263Z,4.95
2018-07-30T02:21:40.246Z,4.93
2018-07-30T02:22:46.025Z,4.75
2018-07-30T02:23:51.774Z,5.30
2018-07-30T02:24:57.752Z,4.75
2018-07-30T02:26:03.768Z,5.00
2018-07-30T02:27:09.372Z,4.68
2018-07-30T02:28:15.465Z,4.78
2018-07-30T02:29:21.568Z,4.90
2018-07-30T02:30:27.704Z,4.87
2018-07-30T02:31:33.780Z,4.80
2018-07-30T02:32:39.949Z,5.07
2018-07-30T02:33:45.307Z,4.93
2018-07-30T02:34:51.304Z,4.55
2018-07-30T02:35:57.645Z,5.07
2018-07-30T02:37:03.026Z,4.90
2018-07-30T02:38:13.829Z,5.45
2018-07-30T02:39:19.949Z,4.10
2018-07-30T02:40:25.725Z,4.62
2018-07-30T02:41:31.716Z,5.28
2018-07-30T02:42:37.816Z,4.95
2018-07-30T02:43:43.921Z,5.43
2018-07-30T02:44:50.081Z,4.00
2018-07-30T02:45:56.161Z,5.75
2018-07-30T02:47:02.155Z,5.15
2018-07-30T02:48:07.765Z,5.25
2018-07-30T02:49:13.504Z,5.00
2018-07-30T02:50:19.825Z,4.68
2018-07-30T02:51:25.904Z,4.62
2018-07-30T02:52:32.045Z,4.50
2018-07-30T02:53:38.865Z,4.90
2018-07-30T02:54:45.179Z,5.03
2018-07-30T02:55:51.254Z,5.07
2018-07-30T02:56:57.325Z,5.03
2018-07-30T02:58:02.841Z,4.70
2018-07-30T02:59:08.168Z,4.35
2018-07-30T03:00:14.231Z,4.87
2018-07-30T03:01:20.220Z,5.03
2018-07-30T03:02:26.039Z,4.68
2018-07-30T03:03:32.071Z,5.30
2018-07-30T03:04:38.004Z,5.03
2018-07-30T03:05:44.068Z,5.15
2018-07-30T03:06:50.265Z,4.70
2018-07-30T03:07:56.367Z,5.45
2018-07-30T03:09:02.040Z,5.85
2018-07-30T03:10:07.383Z,5.43
2018-07-30T03:11:13.489Z,5.60
2018-07-30T03:12:19.646Z,5.00
2018-07-30T03:13:24.965Z,5.35
2018-07-30T03:14:31.580Z,5.20
2018-07-30T03:15:37.160Z,5.25
2018-07-30T03:16:43.140Z,5.25
2018-07-30T03:17:48.913Z,5.07
2018-07-30T03:18:54.948Z,5.50
2018-07-30T03:20:01.092Z,5.10
2018-07-30T03:21:07.440Z,5.15
2018-07-30T03:22:13.583Z,4.97
2018-07-30T03:23:19.699Z,5.70
2018-07-30T03:24:25.441Z,5.25
2018-07-30T03:25:31.546Z,4.90
2018-07-30T03:26:37.580Z,5.70
2018-07-30T03:27:43.673Z,4.45
2018-07-30T03:28:49.851Z,5.07
2018-07-30T03:29:55.824Z,5.78
2018-07-30T03:31:02.092Z,5.45
2018-07-30T03:32:08.289Z,5.10
2018-07-30T03:33:13.996Z,4.70
2018-07-30T03:34:19.952Z,5.40
2018-07-30T03:35:25.736Z,5.00
2018-07-30T03:36:31.485Z,5.07
2018-07-30T03:37:37.483Z,4.95
2018-07-30T03:38:43.564Z,5.15
2018-07-30T03:39:49.601Z,4.97
2018-07-30T03:40:55.780Z,5.05
2018-07-30T03:42:01.782Z,4.90
2018-07-30T03:43:08.060Z,5.05
2018-07-30T03:44:14.238Z,5.70
2018-07-30T03:45:21.085Z,4.80
2018-07-30T03:46:27.023Z,4.97
2018-07-30T03:47:32.710Z,5.00
2018-07-30T03:48:38.781Z,5.00
2018-07-30T03:49:44.979Z,5.82
2018-07-30T03:50:52.544Z,5.30
2018-07-30T03:51:58.231Z,4.70
2018-07-30T03:53:04.752Z,5.40
2018-07-30T03:54:10.837Z,5.60
2018-07-30T03:55:16.866Z,5.78
2018-07-30T03:56:22.848Z,5.93
2018-07-30T03:57:28.874Z,5.65
2018-07-30T03:58:35.036Z,5.85
2018-07-30T03:59:41.148Z,6.07
2018-07-30T04:00:46.931Z,5.55
2018-07-30T04:01:52.947Z,5.55
2018-07-30T04:02:59.127Z,5.82
2018-07-30T04:04:04.905Z,4.80
2018-07-30T04:05:11.207Z,5.72
2018-07-30T04:06:17.331Z,5.12
2018-07-30T04:07:23.401Z,5.35
2018-07-30T04:08:29.508Z,5.55
2018-07-30T04:09:35.538Z,5.65
2018-07-30T04:10:44.825Z,5.62
2018-07-30T04:11:51.048Z,6.00
2018-07-30T04:12:57.288Z,5.82
2018-07-30T04:14:03.407Z,5.53
2018-07-30T04:15:08.771Z,5.82
2018-07-30T04:16:14.849Z,5.90
2018-07-30T04:17:21.884Z,5.82
2018-07-30T04:18:28.043Z,6.00
2018-07-30T04:19:34.341Z,5.55
2018-07-30T04:20:40.548Z,5.60
2018-07-30T04:21:46.372Z,6.12
2018-07-30T04:22:52.396Z,6.12
2018-07-30T04:23:58.481Z,5.28
2018-07-30T04:25:03.892Z,5.82
2018-07-30T04:26:10.065Z,6.43
2018-07-30T04:27:17.108Z,5.30
2018-07-30T04:28:23.201Z,5.00
2018-07-30T04:29:29.309Z,5.95
2018-07-30T04:30:35.462Z,5.35
2018-07-30T04:31:41.526Z,6.25
2018-07-30T04:32:47.938Z,5.53
2018-07-30T04:33:53.737Z,5.72
2018-07-30T04:34:59.375Z,5.97
2018-07-30T04:36:04.788Z,5.07
2018-07-30T04:37:10.909Z,6.35
2018-07-30T04:38:17.064Z,5.70
2018-07-30T04:39:23.065Z,5.70
2018-07-30T04:40:29.160Z,5.45
2018-07-30T04:41:37.305Z,7.07
2018-07-30T04:42:44.001Z,6.07
2018-07-30T04:43:50.322Z,5.45
2018-07-30T04:44:56.556Z,5.80
2018-07-30T04:46:02.600Z,5.60
2018-07-30T04:47:08.705Z,5.55
2018-07-30T04:48:14.677Z,5.30
2018-07-30T04:49:20.877Z,5.55
2018-07-30T04:50:27.200Z,4.90
2018-07-30T04:51:32.889Z,5.70
2018-07-30T04:52:39.026Z,6.10
2018-07-30T04:53:44.932Z,5.20
2018-07-30T04:54:51.012Z,5.35
2018-07-30T04:55:57.065Z,5.95
2018-07-30T04:57:03.187Z,6.37
2018-07-30T04:58:09.597Z,6.55
2018-07-30T04:59:15.706Z,5.37
2018-07-30T05:00:21.475Z,6.75
2018-07-30T05:01:27.705Z,4.97
2018-07-30T05:02:33.755Z,5.25
2018-07-30T05:03:40.597Z,5.68
2018-07-30T05:04:46.860Z,5.40
2018-07-30T05:05:52.940Z,6.30
2018-07-30T05:06:58.948Z,5.70
2018-07-30T05:08:05.281Z,5.72
2018-07-30T05:09:12.545Z,5.35
2018-07-30T05:10:18.592Z,5.60
2018-07-30T05:11:25.044Z,5.55
2018-07-30T05:12:31.188Z,5.60
2018-07-30T05:13:38.742Z,5.55
2018-07-30T05:14:44.731Z,5.37
2018-07-30T05:15:52.018Z,5.80
2018-07-30T05:16:58.069Z,6.40
2018-07-30T05:18:03.849Z,5.68
2018-07-30T05:19:10.750Z,5.90
2018-07-30T05:20:16.989Z,6.07
2018-07-30T05:21:23.160Z,5.65
2018-07-30T05:22:29.272Z,6.15
2018-07-30T05:23:35.432Z,5.05
2018-07-30T05:24:41.470Z,5.85
2018-07-30T05:25:47.678Z,5.25
2018-07-30T05:26:53.840Z,5.25
2018-07-30T05:28:00.467Z,5.35
2018-07-30T05:29:05.992Z,4.97
2018-07-30T05:30:12.252Z,5.43
2018-07-30T05:31:18.390Z,5.28
2018-07-30T05:32:24.396Z,5.07
2018-07-30T05:33:30.432Z,5.12
2018-07-30T05:34:36.508Z,6.15
2018-07-30T05:35:43.125Z,5.35
2018-07-30T05:36:49.231Z,5.60
2018-07-30T05:37:55.232Z,5.28
2018-07-30T05:39:01.393Z,6.07
2018-07-30T05:40:07.185Z,5.37
2018-07-30T05:41:12.855Z,5.00
2018-07-30T05:42:18.875Z,5.28
2018-07-30T05:43:25.005Z,5.20
2018-07-30T05:44:31.086Z,5.32
2018-07-30T05:45:37.232Z,5.50
2018-07-30T05:46:43.519Z,5.55
2018-07-30T05:47:49.619Z,4.82
2018-07-30T05:48:55.728Z,4.55
2018-07-30T05:50:01.763Z,5.00
2018-07-30T05:51:08.053Z,4.70
2018-07-30T05:52:14.151Z,4.85
2018-07-30T05:53:20.004Z,6.60
2018-07-30T05:54:26.048Z,5.03
2018-07-30T05:55:32.960Z,4.55
2018-07-30T05:56:39.302Z,4.62
2018-07-30T05:57:45.331Z,4.03
2018-07-30T05:58:51.304Z,5.35
2018-07-30T05:59:57.440Z,5.35
2018-07-30T06:01:03.164Z,4.95
2018-07-30T06:02:08.858Z,5.62
2018-07-30T06:03:14.925Z,4.72
2018-07-30T06:04:20.760Z,4.40
2018-07-30T06:05:26.991Z,5.50
2018-07-30T06:06:33.044Z,5.20
2018-07-30T06:07:39.044Z,5.35
2018-07-30T06:08:45.026Z,4.95
2018-07-30T06:09:51.261Z,5.60
2018-07-30T06:10:57.338Z,5.07
2018-07-30T06:12:03.576Z,5.40
2018-07-30T06:13:09.532Z,5.10
2018-07-30T06:14:15.585Z,5.18
2018-07-30T06:15:21.582Z,4.82
2018-07-30T06:16:27.724Z,4.40
2018-07-30T06:17:33.780Z,4.47
2018-07-30T06:18:39.939Z,4.07
2018-07-30T06:19:46.026Z,4.40
2018-07-30T06:20:51.873Z,4.60
2018-07-30T06:21:57.926Z,4.57
2018-07-30T06:23:03.699Z,4.80
2018-07-30T06:24:09.374Z,4.60
2018-07-30T06:25:15.992Z,5.45
2018-07-30T06:26:22.092Z,5.03
2018-07-30T06:27:28.367Z,4.40
2018-07-30T06:28:34.665Z,5.10
2018-07-30T06:29:42.009Z,4.70
2018-07-30T06:30:48.878Z,5.35
2018-07-30T06:31:55.887Z,5.45
2018-07-30T06:33:02.893Z,4.95
2018-07-30T06:34:08.992Z,5.43
2018-07-30T06:35:15.008Z,6.35
2018-07-30T06:36:20.997Z,6.03
2018-07-30T06:37:27.081Z,5.85
2018-07-30T06:38:33.170Z,5.20
2018-07-30T06:39:39.319Z,5.55
2018-07-30T06:40:45.404Z,5.18
2018-07-30T06:41:51.462Z,5.40
2018-07-30T06:42:57.266Z,5.30
2018-07-30T06:44:02.864Z,4.70
2018-07-30T06:45:08.598Z,4.65
2018-07-30T06:46:14.625Z,4.50
2018-07-30T06:47:20.711Z,4.72
2018-07-30T06:48:26.730Z,4.78
2018-07-30T06:49:32.559Z,4.37
2018-07-30T06:50:38.529Z,4.53
2018-07-30T06:51:44.564Z,4.22
2018-07-30T06:52:50.679Z,4.60
2018-07-30T06:53:56.681Z,4.35
2018-07-30T06:55:02.869Z,5.45
2018-07-30T06:56:08.671Z,4.60
2018-07-30T06:57:14.797Z,4.43
2018-07-30T06:58:20.770Z,4.55
2018-07-30T06:59:26.881Z,4.10
2018-07-30T07:00:32.729Z,5.05
2018-07-30T07:01:38.708Z,5.10
2018-07-30T07:02:44.802Z,4.10
2018-07-30T07:03:50.957Z,4.28
2018-07-30T07:04:56.924Z,5.72
2018-07-30T07:06:03.016Z,3.90
2018-07-30T07:07:09.405Z,4.53
2018-07-30T07:08:16.188Z,4.30
2018-07-30T07:09:22.217Z,4.20
2018-07-30T07:10:28.192Z,4.30
2018-07-30T07:11:34.289Z,4.50
2018-07-30T07:12:39.986Z,4.67
2018-07-30T07:13:45.784Z,4.30
2018-07-30T07:14:51.624Z,4.50
2018-07-30T07:15:57.258Z,4.18
2018-07-30T07:17:03.114Z,3.70
2018-07-30T07:18:09.312Z,3.80
2018-07-30T07:19:15.106Z,4.05
2018-07-30T07:20:20.384Z,4.47
2018-07-30T07:21:26.300Z,4.30
2018-07-30T07:22:32.506Z,4.70
2018-07-30T07:23:38.021Z,4.70
2018-07-30T07:24:43.984Z,4.60
2018-07-30T07:25:49.745Z,3.90
2018-07-30T07:26:56.035Z,4.35
2018-07-30T07:28:01.779Z,4.47
2018-07-30T07:29:07.995Z,3.83
2018-07-30T07:30:13.736Z,4.40
2018-07-30T07:31:19.857Z,3.95
2018-07-30T07:32:25.660Z,4.50
2018-07-30T07:33:31.396Z,4.47
2018-07-30T07:34:37.563Z,3.35
2018-07-30T07:35:42.870Z,4.10
2018-07-30T07:36:48.636Z,3.40
2018-07-30T07:37:54.436Z,3.70
2018-07-30T07:39:00.256Z,4.10
2018-07-30T07:40:05.729Z,3.17
2018-07-30T07:41:11.420Z,3.63
2018-07-30T07:42:16.804Z,3.93
2018-07-30T07:43:22.488Z,3.07
2018-07-30T07:44:28.312Z,2.90
2018-07-30T07:45:34.092Z,3.10
2018-07-30T07:46:39.834Z,3.10
2018-07-30T07:47:45.735Z,3.43
2018-07-30T07:48:50.806Z,3.77
2018-07-30T07:49:56.856Z,3.13
2018-07-30T07:51:02.655Z,3.73
2018-07-30T07:52:08.168Z,3.07
2018-07-30T07:53:13.869Z,3.60
2018-07-30T07:54:19.405Z,3.30
2018-07-30T07:55:25.171Z,3.80
2018-07-30T07:56:30.520Z,3.47
2018-07-30T07:57:35.946Z,3.40
2018-07-30T07:58:41.665Z,3.13
2018-07-30T07:59:47.472Z,3.40
2018-07-30T08:00:53.372Z,3.07
2018-07-30T08:01:59.096Z,3.37
2018-07-30T08:03:04.627Z,3.40
2018-07-30T08:04:09.701Z,3.10
2018-07-30T08:05:15.187Z,3.53
2018-07-30T08:06:21.063Z,3.17
2018-07-30T08:07:26.982Z,3.90
2018-07-30T08:08:32.617Z,3.63
2018-07-30T08:09:38.474Z,3.43
2018-07-30T08:10:44.464Z,3.50
2018-07-30T08:11:50.231Z,3.60
2018-07-30T08:12:56.070Z,3.10
2018-07-30T08:14:01.850Z,3.60
2018-07-30T08:15:07.414Z,3.43
2018-07-30T08:16:13.523Z,3.60
2018-07-30T08:17:19.475Z,3.77
2018-07-30T08:18:25.245Z,3.43
2018-07-30T08:19:30.822Z,3.57
2018-07-30T08:20:36.640Z,3.20
2018-07-30T08:21:42.935Z,3.53
2018-07-30T08:22:48.456Z,3.53
2018-07-30T08:23:53.567Z,3.40
2018-07-30T08:24:58.900Z,3.37
2018-07-30T08:26:06.292Z,3.30
2018-07-30T08:27:12.260Z,3.37
2018-07-30T08:28:17.669Z,3.50
2018-07-30T08:29:23.102Z,3.40
2018-07-30T08:30:28.850Z,3.50
2018-07-30T08:31:34.356Z,3.20
2018-07-30T08:32:39.733Z,3.50
2018-07-30T08:33:44.768Z,3.27
2018-07-30T08:34:50.343Z,3.77
2018-07-30T08:35:55.421Z,3.57
2018-07-30T08:37:01.082Z,3.30
2018-07-30T08:38:06.247Z,3.40
2018-07-30T08:39:11.748Z,3.70
2018-07-30T08:40:17.488Z,3.30
2018-07-30T08:41:23.268Z,3.97
2018-07-30T08:42:28.773Z,3.70
2018-07-30T08:43:34.470Z,3.20
2018-07-30T08:44:40.164Z,3.40
2018-07-30T08:45:45.184Z,3.40
2018-07-30T08:46:51.220Z,3.50
2018-07-30T08:47:57.672Z,3.13
2018-07-30T08:49:03.126Z,3.77
2018-07-30T08:50:08.160Z,3.63
2018-07-30T08:51:14.024Z,4.10
2018-07-30T08:52:19.891Z,3.43
2018-07-30T08:53:25.708Z,3.70
2018-07-30T08:54:31.601Z,3.63
2018-07-30T08:55:37.397Z,3.73
2018-07-30T08:56:43.196Z,4.07
2018-07-30T08:57:49.073Z,3.77
2018-07-30T08:58:54.856Z,4.23
2018-07-30T09:00:00.687Z,3.90
2018-07-30T09:01:06.195Z,3.83
2018-07-30T09:02:11.927Z,3.73
2018-07-30T09:03:17.299Z,3.80
2018-07-30T09:04:23.048Z,4.00
2018-07-30T09:05:28.762Z,4.07
2018-07-30T09:06:34.461Z,3.70
2018-07-30T09:07:40.603Z,3.67
2018-07-30T09:08:46.641Z,4.03
2018-07-30T09:09:52.337Z,3.70
2018-07-30T09:10:57.834Z,3.50
2018-07-30T09:12:03.527Z,3.47
2018-07-30T09:13:09.036Z,3.40
2018-07-30T09:14:14.841Z,3.80
2018-07-30T09:15:20.643Z,3.40
2018-07-30T09:16:26.326Z,3.50
2018-07-30T09:17:32.050Z,4.80
2018-07-30T09:18:37.820Z,3.73
2018-07-30T09:19:43.619Z,3.57
2018-07-30T09:20:49.480Z,3.53
2018-07-30T09:21:55.324Z,3.70
2018-07-30T09:23:01.265Z,3.43
2018-07-30T09:24:07.058Z,3.90
2018-07-30T09:25:12.368Z,3.73
2018-07-30T09:26:18.122Z,3.93
2018-07-30T09:27:23.921Z,3.20
2018-07-30T09:28:30.352Z,3.50
2018-07-30T09:29:36.323Z,3.70
2018-07-30T09:30:42.073Z,3.67
2018-07-30T09:31:47.866Z,3.50
2018-07-30T09:32:53.720Z,3.53
2018-07-30T09:33:59.321Z,3.53
2018-07-30T09:35:04.372Z,3.60
2018-07-30T09:36:09.559Z,3.53
2018-07-30T09:37:15.300Z,3.13
2018-07-30T09:38:21.140Z,3.67
2018-07-30T09:39:26.560Z,3.60
2018-07-30T09:40:32.543Z,3.60
2018-07-30T09:41:38.419Z,4.00
2018-07-30T09:42:43.746Z,3.87
2018-07-30T09:43:49.159Z,4.07
2018-07-30T09:44:54.932Z,3.20
2018-07-30T09:46:00.883Z,3.53
2018-07-30T09:47:06.343Z,3.47
2018-07-30T09:48:11.720Z,3.53
2018-07-30T09:49:18.453Z,3.60
2018-07-30T09:50:24.103Z,3.83
2018-07-30T09:51:29.779Z,4.20
2018-07-30T09:52:35.609Z,3.63
2018-07-30T09:53:41.336Z,3.30
2018-07-30T09:54:47.965Z,4.20
2018-07-30T09:55:53.702Z,4.20
2018-07-30T09:56:59.504Z,4.40
2018-07-30T09:58:05.239Z,3.93
2018-07-30T09:59:10.898Z,3.83
2018-07-30T10:00:16.476Z,4.13
2018-07-30T10:01:22.011Z,3.63
2018-07-30T10:02:27.693Z,3.97
2018-07-30T10:03:32.820Z,4.20
2018-07-30T10:04:38.440Z,3.27
2018-07-30T10:05:44.306Z,4.20
2018-07-30T10:06:50.821Z,4.30
2018-07-30T10:07:56.600Z,4.50
2018-07-30T10:09:02.323Z,4.17
2018-07-30T10:10:07.740Z,4.30
2018-07-30T10:11:13.506Z,3.77
2018-07-30T10:12:18.929Z,4.37
2018-07-30T10:13:24.679Z,3.53
2018-07-30T10:14:31.013Z,4.47
2018-07-30T10:15:36.808Z,3.43
2018-07-30T10:16:42.637Z,4.40
2018-07-30T10:17:48.346Z,3.80
2018-07-30T10:18:54.228Z,3.90
2018-07-30T10:19:59.986Z,3.80
2018-07-30T10:21:05.843Z,4.27
2018-07-30T10:22:11.708Z,2.90
2018-07-30T10:23:17.524Z,3.63
2018-07-30T10:24:23.557Z,3.90
2018-07-30T10:25:29.220Z,3.57
2018-07-30T10:26:35.302Z,4.10
2018-07-30T10:27:40.975Z,3.80
2018-07-30T10:28:46.823Z,4.03
2018-07-30T10:29:52.502Z,3.70
2018-07-30T10:30:58.303Z,3.97
2018-07-30T10:32:03.664Z,3.97
2018-07-30T10:33:09.356Z,3.50
2018-07-30T10:34:15.107Z,4.23
2018-07-30T10:35:20.558Z,4.90
2018-07-30T10:36:26.265Z,4.30
2018-07-30T10:37:32.126Z,4.30
2018-07-30T10:38:38.026Z,3.80
2018-07-30T10:39:43.837Z,4.07
2018-07-30T10:40:49.821Z,3.90
2018-07-30T10:41:55.492Z,3.80
2018-07-30T10:43:01.201Z,3.73
2018-07-30T10:44:07.013Z,3.67
2018-07-30T10:45:12.673Z,3.70
2018-07-30T10:46:18.944Z,3.70
2018-07-30T10:47:25.194Z,3.83
2018-07-30T10:48:31.033Z,4.27
2018-07-30T10:49:36.700Z,3.83
2018-07-30T10:50:42.500Z,3.83
2018-07-30T10:51:48.292Z,3.70
2018-07-30T10:52:54.204Z,4.53
2018-07-30T10:54:00.041Z,3.90
2018-07-30T10:55:05.372Z,3.53
2018-07-30T10:56:11.083Z,4.10
2018-07-30T10:57:16.789Z,3.80
2018-07-30T10:58:22.583Z,4.47
2018-07-30T10:59:27.963Z,3.67
2018-07-30T11:00:33.719Z,4.10
2018-07-30T11:01:39.081Z,3.67
2018-07-30T11:02:44.751Z,4.10
2018-07-30T11:03:50.607Z,3.97
2018-07-30T11:04:56.283Z,4.03
2018-07-30T11:06:02.096Z,3.87
2018-07-30T11:07:08.265Z,3.60
2018-07-30T11:08:14.310Z,3.90
2018-07-30T11:09:20.114Z,4.13
2018-07-30T11:10:25.876Z,4.07
2018-07-30T11:11:31.622Z,3.80
2018-07-30T11:12:37.277Z,4.33
2018-07-30T11:13:43.115Z,3.80
2018-07-30T11:14:48.939Z,3.67
2018-07-30T11:15:54.892Z,3.90
2018-07-30T11:17:00.560Z,4.03
2018-07-30T11:18:05.979Z,3.90
2018-07-30T11:19:11.801Z,4.47
2018-07-30T11:20:17.567Z,4.53
2018-07-30T11:21:23.388Z,4.37
2018-07-30T11:22:29.188Z,4.00
2018-07-30T11:23:34.926Z,3.70
2018-07-30T11:24:40.713Z,4.40
2018-07-30T11:25:46.501Z,3.80
2018-07-30T11:26:52.276Z,3.77
2018-07-30T11:27:58.682Z,3.80
2018-07-30T11:29:04.721Z,4.00
2018-07-30T11:30:10.045Z,4.10
2018-07-30T11:31:15.798Z,3.70
2018-07-30T11:32:21.791Z,4.10
2018-07-30T11:33:27.638Z,3.90
2018-07-30T11:34:33.507Z,3.87
2018-07-30T11:35:39.321Z,4.23
2018-07-30T11:36:45.021Z,4.03
2018-07-30T11:37:50.796Z,4.10
2018-07-30T11:38:56.651Z,4.60
2018-07-30T11:40:02.450Z,3.80
2018-07-30T11:41:08.533Z,3.77
2018-07-30T11:42:14.308Z,3.87
2018-07-30T11:43:20.107Z,4.40
2018-07-30T11:44:25.605Z,4.10
2018-07-30T11:45:31.267Z,3.70
2018-07-30T11:46:37.088Z,3.97
2018-07-30T11:47:42.792Z,4.03
2018-07-30T11:48:49.788Z,3.50
2018-07-30T11:49:55.634Z,3.77
2018-07-30T11:51:01.446Z,3.90
2018-07-30T11:52:06.777Z,3.73
2018-07-30T11:53:12.422Z,4.70
2018-07-30T11:54:18.223Z,3.70
2018-07-30T11:55:24.161Z,4.60
2018-07-30T11:56:29.896Z,4.03
2018-07-30T11:57:36.187Z,4.90
2018-07-30T11:58:41.914Z,4.13
2018-07-30T11:59:47.849Z,4.37
2018-07-30T12:00:53.658Z,4.20
2018-07-30T12:01:59.678Z,4.60
2018-07-30T12:03:05.163Z,4.30
2018-07-30T12:04:10.956Z,3.53
2018-07-30T12:05:16.404Z,4.00
2018-07-30T12:06:22.156Z,3.53
2018-07-30T12:07:28.835Z,3.77
2018-07-30T12:08:35.442Z,4.10
2018-07-30T12:09:42.338Z,4.00
2018-07-30T12:10:48.727Z,3.67
2018-07-30T12:11:57.049Z,3.87
2018-07-30T12:13:03.420Z,4.20
2018-07-30T12:14:10.109Z,4.00
2018-07-30T12:15:17.136Z,3.97
2018-07-30T12:16:24.897Z,3.73
2018-07-30T12:17:31.850Z,3.50
2018-07-30T12:18:43.415Z,3.97
2018-07-30T12:19:52.116Z,3.70
2018-07-30T12:20:59.909Z,3.80
2018-07-30T12:22:05.704Z,4.07
2018-07-30T12:23:11.459Z,4.10
2018-07-30T12:24:17.136Z,3.73
2018-07-30T12:25:22.929Z,3.70
2018-07-30T12:26:28.660Z,4.10
2018-07-30T12:27:34.630Z,3.93
2018-07-30T12:28:40.449Z,3.80
2018-07-30T12:29:46.158Z,4.17
2018-07-30T12:30:51.928Z,3.70
2018-07-30T12:31:57.671Z,3.77
2018-07-30T12:33:03.327Z,4.37
2018-07-30T12:34:09.125Z,5.80
2018-07-30T12:35:14.592Z,4.33
2018-07-30T12:36:20.346Z,6.53
2018-07-30T12:37:26.114Z,3.70
2018-07-30T12:38:31.931Z,3.60
2018-07-30T12:39:37.635Z,4.33
2018-07-30T12:40:44.445Z,4.27
2018-07-30T12:41:50.961Z,3.90
2018-07-30T12:42:59.408Z,3.90
2018-07-30T12:44:06.500Z,4.37
2018-07-30T12:45:13.465Z,4.27
2018-07-30T12:46:20.437Z,4.20
2018-07-30T12:47:28.072Z,4.60
2018-07-30T12:48:35.382Z,4.63
2018-07-30T12:49:42.604Z,4.23
2018-07-30T12:50:50.211Z,3.77
2018-07-30T12:51:57.142Z,3.63
2018-07-30T12:53:04.649Z,3.90
2018-07-30T12:54:11.469Z,5.07
2018-07-30T12:55:17.998Z,3.83
2018-07-30T12:56:26.003Z,4.20
2018-07-30T12:57:33.069Z,3.87
2018-07-30T12:58:41.548Z,4.40
2018-07-30T12:59:48.663Z,3.97
2018-07-30T13:00:55.433Z,4.13
2018-07-30T13:02:03.593Z,4.63
2018-07-30T13:03:10.926Z,3.90
2018-07-30T13:04:18.734Z,4.70
2018-07-30T13:05:26.025Z,4.10
2018-07-30T13:06:33.465Z,3.73
2018-07-30T13:07:41.962Z,4.70
2018-07-30T13:08:49.196Z,4.20
2018-07-30T13:09:56.214Z,3.50
2018-07-30T13:11:02.295Z,4.37
2018-07-30T13:12:07.648Z,4.63
2018-07-30T13:13:13.378Z,3.97
2018-07-30T13:14:19.085Z,4.27
2018-07-30T13:15:25.985Z,3.50
2018-07-30T13:16:31.483Z,4.20
2018-07-30T13:17:37.882Z,4.50
2018-07-30T13:18:43.587Z,4.23
2018-07-30T13:19:49.409Z,4.03
2018-07-30T13:20:55.189Z,4.23
2018-07-30T13:22:01.248Z,4.03
2018-07-30T13:23:06.554Z,4.03
2018-07-30T13:24:12.488Z,4.17
2018-07-30T13:25:18.219Z,4.50
2018-07-30T13:26:23.997Z,3.63
2018-07-30T13:27:30.092Z,3.70
2018-07-30T13:28:35.921Z,4.47
2018-07-30T13:29:41.622Z,4.40
2018-07-30T13:30:47.291Z,4.17
2018-07-30T13:31:53.061Z,3.80
2018-07-30T13:32:58.913Z,4.27
2018-07-30T13:34:04.599Z,3.97
2018-07-30T13:35:10.860Z,4.20
2018-07-30T13:36:16.612Z,3.80
2018-07-30T13:37:22.422Z,3.53
2018-07-30T13:38:28.105Z,3.80
2018-07-30T13:39:33.922Z,3.97
2018-07-30T13:40:39.647Z,4.00
2018-07-30T13:41:44.999Z,3.90
2018-07-30T13:42:50.000Z,3.53
2018-07-30T13:43:56.390Z,3.90
2018-07-30T13:45:02.917Z,3.90
2018-07-30T13:46:12.006Z,3.53
2018-07-30T13:47:18.100Z,3.80
2018-07-30T13:48:25.045Z,3.50
2018-07-30T13:49:30.955Z,3.87
2018-07-30T13:50:37.614Z,4.03
2018-07-30T13:51:43.279Z,4.03
2018-07-30T13:52:49.867Z,4.00
2018-07-30T13:53:56.217Z,3.10
2018-07-30T13:55:01.491Z,3.40
2018-07-30T13:56:07.400Z,3.80
2018-07-30T13:57:13.850Z,3.30
2018-07-30T13:58:20.232Z,3.67
2018-07-30T13:59:26.703Z,3.80
2018-07-30T14:00:32.864Z,3.47
2018-07-30T14:01:38.903Z,4.20
2018-07-30T14:02:44.863Z,3.30
2018-07-30T14:03:51.198Z,3.90
2018-07-30T14:04:57.057Z,3.73
2018-07-30T14:06:04.270Z,3.40
2018-07-30T14:07:11.249Z,3.30
2018-07-30T14:08:17.327Z,3.70
2018-07-30T14:09:23.689Z,4.40
2018-07-30T14:10:29.805Z,3.77
2018-07-30T14:11:36.938Z,3.83
2018-07-30T14:12:42.764Z,3.47
2018-07-30T14:13:48.699Z,3.47
2018-07-30T14:14:54.709Z,3.60
2018-07-30T14:16:00.777Z,3.30
2018-07-30T14:17:06.667Z,3.70
2018-07-30T14:18:12.831Z,3.30
2018-07-30T14:19:19.851Z,3.40
2018-07-30T14:20:26.878Z,3.33
2018-07-30T14:21:32.540Z,3.20
2018-07-30T14:22:37.644Z,3.40
2018-07-30T14:23:43.332Z,3.63
2018-07-30T14:24:50.115Z,3.53
2018-07-30T14:25:56.378Z,3.80
2018-07-30T14:27:03.525Z,3.47
2018-07-30T14:28:09.388Z,3.20
2018-07-30T14:29:15.218Z,4.03
2018-07-30T14:30:20.993Z,3.20
2018-07-30T14:31:27.316Z,3.57
2018-07-30T14:32:35.319Z,3.20
2018-07-30T14:33:41.702Z,3.40
2018-07-30T14:34:47.567Z,3.60
2018-07-30T14:35:54.554Z,3.70
2018-07-30T14:37:01.111Z,3.27
2018-07-30T14:38:06.456Z,3.90
2018-07-30T14:39:12.707Z,3.43